Time;durP1;ratioP1;P1;durP2;ratioP2;P2;SDS_P1;SDS_P2;PMS_P1;PMS_P2;Temp;Humidity;BMP_temperature;BMP_pressure;BME280_temperature;BME280_humidity;BME280_pressure;Samples;Min_cycle;Max_cycle;Signal;HPM_P1;HPM_P2
2022/01/19 00:01:50;;;;;;;3.55;1.35;;;;;;;-3.17;54.74;101231.33;1734953;81;21046;-69
2022/01/19 00:04:16;;;;;;;5.33;1.15;;;;;;;-3.17;54.83;101227.41;1739609;80;20991;-68
2022/01/19 00:06:42;;;;;;;3.33;1.20;;;;;;;-3.22;54.93;101239.63;1735666;81;21520;-68
2022/01/19 00:09:09;;;;;;;3.42;1.40;;;;;;;-3.25;55.07;101243.84;1737289;81;21031;-68
2022/01/19 00:11:35;;;;;;;5.30;1.50;;;;;;;-3.25;55.13;101256.09;1740661;82;21059;-68
2022/01/19 00:14:04;;;;;;;3.87;1.27;;;;;;;-3.27;55.20;101253.61;1737423;82;21071;-68
2022/01/19 00:16:32;;;;;;;4.85;1.52;;;;;;;-3.28;55.17;101262.43;1720236;82;21035;-69
2022/01/19 00:18:59;;;;;;;3.10;1.20;;;;;;;-3.27;55.23;101273.20;1739712;80;21183;-69
2022/01/19 00:21:25;;;;;;;2.58;1.20;;;;;;;-3.29;55.33;101293.45;1733618;82;21085;-68
2022/01/19 00:23:52;;;;;;;4.00;1.52;;;;;;;-3.29;55.33;101273.86;1727099;82;21513;-68
2022/01/19 00:26:19;;;;;;;3.40;1.27;;;;;;;-3.31;55.37;101268.77;1735984;81;21042;-67
2022/01/19 00:28:45;;;;;;;5.42;1.30;;;;;;;-3.30;55.45;101281.34;1732885;82;21038;-69
2022/01/19 00:31:11;;;;;;;1.95;0.88;;;;;;;-3.32;55.59;101277.58;1719659;82;21173;-68
2022/01/19 00:33:38;;;;;;;5.05;1.40;;;;;;;-3.36;55.61;101287.97;1727616;82;21549;-68
2022/01/19 00:36:06;;;;;;;3.02;1.30;;;;;;;-3.36;55.68;101281.44;1735698;82;21070;-68
2022/01/19 00:38:33;;;;;;;3.67;1.40;;;;;;;-3.33;55.74;101283.76;1723762;82;21051;-68
2022/01/19 00:41:01;;;;;;;3.90;1.52;;;;;;;-3.39;55.96;101284.83;1720374;82;21058;-68
2022/01/19 00:43:28;;;;;;;2.25;1.10;;;;;;;-3.40;56.01;101285.81;1740081;81;21141;-68
2022/01/19 00:45:54;;;;;;;4.92;1.10;;;;;;;-3.42;56.11;101282.52;1720542;81;21098;-68
2022/01/19 00:48:20;;;;;;;4.75;1.42;;;;;;;-3.41;56.16;101290.70;1741055;81;21094;-66
2022/01/19 00:50:47;;;;;;;4.95;1.60;;;;;;;-3.43;56.25;101299.98;1740942;82;21098;-67
2022/01/19 00:53:13;;;;;;;2.35;1.15;;;;;;;-3.44;56.37;101281.86;1718033;80;21039;-67
2022/01/19 00:55:41;;;;;;;3.05;1.20;;;;;;;-3.45;56.45;101285.45;1742054;82;21087;-68
2022/01/19 00:58:07;;;;;;;2.75;1.15;;;;;;;-3.44;56.57;101300.95;1719709;82;21031;-67
2022/01/19 01:00:34;;;;;;;2.95;1.02;;;;;;;-3.49;56.66;101301.05;1740351;81;21645;-67
2022/01/19 01:03:02;;;;;;;3.83;1.40;;;;;;;-3.49;56.76;101301.05;1733661;82;21577;-67
2022/01/19 01:05:29;;;;;;;2.77;1.00;;;;;;;-3.53;56.94;101303.14;1727593;82;21090;-67
2022/01/19 01:07:56;;;;;;;3.45;1.35;;;;;;;-3.57;57.02;101298.69;1742097;80;21091;-68
2022/01/19 01:10:23;;;;;;;3.67;1.30;;;;;;;-3.59;57.16;101295.88;1743213;80;21099;-67
2022/01/19 01:12:53;;;;;;;3.65;1.37;;;;;;;-3.60;57.23;101309.43;1719569;82;21094;-67
2022/01/19 01:15:29;;;;;;;3.33;1.30;;;;;;;-3.62;57.32;101298.78;1725690;82;21086;-67
2022/01/19 01:20:33;;;;;;;4.55;1.45;;;;;;;-3.68;57.42;101310.66;1727286;80;21965;-68
2022/01/19 01:23:00;;;;;;;4.20;1.75;;;;;;;-3.72;57.51;101305.36;1741544;82;21518;-67
2022/01/19 01:25:27;;;;;;;3.17;1.37;;;;;;;-3.72;57.55;101300.63;1732724;82;21789;-67
2022/01/19 01:27:54;;;;;;;3.95;1.45;;;;;;;-3.76;57.63;101297.48;1732440;81;21050;-66
2022/01/19 01:30:20;;;;;;;3.77;1.40;;;;;;;-3.77;57.75;101302.38;1735330;82;21053;-66
2022/01/19 01:32:47;;;;;;;3.62;1.65;;;;;;;-3.80;57.78;101302.67;1732420;81;22209;-67
2022/01/19 01:35:14;;;;;;;3.65;1.42;;;;;;;-3.78;57.80;101298.14;1740097;82;21075;-66
2022/01/19 01:37:41;;;;;;;3.35;1.20;;;;;;;-3.80;57.80;101299.56;1718856;82;21039;-67
2022/01/19 01:40:09;;;;;;;4.70;1.70;;;;;;;-3.80;57.78;101301.36;1727776;82;21388;-66
2022/01/19 01:42:36;;;;;;;4.87;1.75;;;;;;;-3.81;57.78;101307.56;1732515;82;20991;-67
2022/01/19 01:45:09;;;;;;;7.20;2.45;;;;;;;-3.81;57.77;101313.59;1709642;82;21113;-67
2022/01/19 01:47:40;;;;;;;4.80;1.60;;;;;;;-3.85;57.74;101310.94;1720218;82;21118;-66
2022/01/19 01:55:21;;;;;;;3.35;1.70;;;;;;;-3.88;57.75;101323.43;1711612;82;21544;-67
2022/01/19 01:57:48;;;;;;;5.67;1.82;;;;;;;-3.90;57.80;101317.55;1729312;82;21400;-66
2022/01/19 02:00:20;;;;;;;5.58;2.05;;;;;;;-3.91;57.79;101315.42;1709374;82;21051;-66
2022/01/19 02:02:47;;;;;;;5.78;2.05;;;;;;;-3.92;57.78;101307.73;1720417;81;21063;-66
2022/01/19 02:05:17;;;;;;;4.70;1.87;;;;;;;-3.96;57.87;101308.50;1740828;81;21529;-66
2022/01/19 02:08:01;;;;;;;4.05;1.60;;;;;;;-3.94;57.78;101310.98;1744856;81;21093;-66
2022/01/19 02:10:43;;;;;;;3.77;1.55;;;;;;;-3.95;57.81;101306.70;1721351;82;21556;-67
2022/01/19 02:23:56;;;;;;;5.80;2.22;;;;;;;-4.09;57.91;101300.99;1729780;81;22264;-66
2022/01/19 02:26:33;;;;;;;3.70;1.67;;;;;;;-4.08;57.98;101300.50;1731930;82;21067;-66
2022/01/19 02:40:11;;;;;;;5.80;2.10;;;;;;;-4.15;58.43;101300.25;1731758;82;21070;-66
2022/01/19 02:42:42;;;;;;;4.60;1.80;;;;;;;-4.15;58.43;101295.03;1738182;81;21541;-66
2022/01/19 02:50:18;;;;;;;4.90;1.90;;;;;;;-4.19;58.61;101285.04;1725094;82;21173;-65
2022/01/19 02:52:45;;;;;;;5.25;1.90;;;;;;;-4.20;58.63;101284.22;1730925;82;21090;-66
2022/01/19 02:55:12;;;;;;;4.17;1.75;;;;;;;-4.20;58.70;101289.93;1724248;82;21126;-66
2022/01/19 02:57:40;;;;;;;5.53;1.92;;;;;;;-4.25;58.72;101305.98;1738925;81;21050;-66
2022/01/19 03:11:08;;;;;;;6.10;2.30;;;;;;;-4.22;59.02;101308.31;1799070;79;21038;-66
2022/01/19 03:13:36;;;;;;;4.92;2.08;;;;;;;-4.25;59.09;101315.11;1799412;79;20996;-66
2022/01/19 03:16:04;;;;;;;5.22;1.90;;;;;;;-4.23;59.10;101315.80;1805923;79;21177;-66
2022/01/19 03:18:31;;;;;;;4.20;2.02;;;;;;;-4.23;59.14;101313.20;1810172;79;21407;-65
2022/01/19 03:20:57;;;;;;;5.72;2.47;;;;;;;-4.24;59.16;101314.17;1803664;79;21513;-66
2022/01/19 03:23:24;;;;;;;5.47;2.50;;;;;;;-4.25;59.26;101312.02;1799200;79;20978;-66
2022/01/19 03:25:53;;;;;;;4.47;2.65;;;;;;;-4.23;59.30;101317.59;1799551;79;21556;-67
2022/01/19 03:28:19;;;;;;;5.85;2.27;;;;;;;-4.25;59.40;101305.98;1799354;79;21127;-65
2022/01/19 03:30:46;;;;;;;5.92;2.25;;;;;;;-4.26;59.41;101309.08;1799465;79;21022;-66
2022/01/19 03:33:13;;;;;;;6.85;2.12;;;;;;;-4.28;59.44;101297.98;1799676;79;21028;-65
2022/01/19 03:35:40;;;;;;;6.40;2.15;;;;;;;-4.27;59.48;101293.09;1799670;79;21629;-66
2022/01/19 03:38:07;;;;;;;5.90;2.20;;;;;;;-4.27;59.50;101280.06;1799261;79;21027;-66
2022/01/19 03:40:36;;;;;;;6.62;2.40;;;;;;;-4.28;59.50;101297.98;1799255;79;21133;-66
2022/01/19 03:43:05;;;;;;;6.37;2.30;;;;;;;-4.30;59.47;101269.91;1799178;79;21415;-66
2022/01/19 03:45:37;;;;;;;6.83;2.65;;;;;;;-4.32;59.50;101272.31;1775680;79;20933;-66
2022/01/19 03:48:32;;;;;;;5.58;2.05;;;;;;;-4.34;59.56;101282.90;1799146;79;21558;-66
2022/01/19 03:50:44;;;;;;;6.35;2.37;;;;;;;-4.37;59.62;101298.01;1805005;79;21517;-66
2022/01/19 03:53:11;;;;;;;5.92;2.40;;;;;;;-4.42;59.70;101288.47;1810009;79;22031;-66
2022/01/19 03:55:37;;;;;;;6.97;2.37;;;;;;;-4.45;59.75;101292.66;1793608;79;20988;-66
2022/01/19 03:58:04;;;;;;;5.65;2.20;;;;;;;-4.49;59.89;101295.55;1774464;80;20979;-66
2022/01/19 04:00:34;;;;;;;6.15;2.27;;;;;;;-4.53;60.01;101304.62;1774922;80;21517;-66
2022/01/19 04:03:04;;;;;;;5.35;2.35;;;;;;;-4.55;60.13;101303.11;1774552;80;20975;-66
2022/01/19 04:08:15;;;;;;;4.03;2.05;;;;;;;-4.60;60.37;101315.27;1767681;81;21026;-66
2022/01/19 04:10:42;;;;;;;5.90;2.30;;;;;;;-4.62;60.60;101311.97;1768060;81;21537;-66
2022/01/19 04:13:24;;;;;;;6.42;2.62;;;;;;;-4.61;60.66;101301.87;1767634;79;21517;-66
2022/01/19 04:15:38;;;;;;;6.35;2.55;;;;;;;-4.62;60.70;101298.93;1794751;79;21476;-66
2022/01/19 04:18:04;;;;;;;4.95;2.30;;;;;;;-4.63;60.80;101300.39;1799308;79;21705;-66
2022/01/19 04:20:40;;;;;;;5.78;2.30;;;;;;;-4.61;60.87;101310.17;1768549;79;20986;-66
2022/01/19 04:23:01;;;;;;;7.33;2.30;;;;;;;-4.60;60.97;101316.58;1798188;79;21696;-65
2022/01/19 04:25:28;;;;;;;6.55;2.08;;;;;;;-4.58;61.02;101330.27;1799244;79;21439;-65
2022/01/19 04:27:55;;;;;;;4.40;1.95;;;;;;;-4.58;61.07;101325.55;1799175;79;20988;-66
2022/01/19 04:30:26;;;;;;;5.33;2.27;;;;;;;-4.56;61.16;101320.53;1799406;79;22099;-65
2022/01/19 04:35:29;;;;;;;4.83;2.35;;;;;;;-4.45;61.23;101333.08;1799661;79;21034;-66
2022/01/19 04:44:06;;;;;;;6.08;2.80;;;;;;;-4.26;61.27;101325.22;1768495;79;21175;-66
2022/01/19 04:54:07;;;;;;;7.72;3.50;;;;;;;-4.15;61.31;101321.61;1797868;79;20991;-66
2022/01/19 04:54:48;;;;;;;7.55;3.50;;;;;;;-4.03;61.25;101331.73;1750974;80;21075;-67
2022/01/19 05:07:40;;;;;;;8.50;3.90;;;;;;;-3.89;61.03;101332.23;1741190;81;21117;-66
2022/01/19 05:15:35;;;;;;;7.75;3.45;;;;;;;-3.91;61.03;101343.31;1742377;81;21095;-65
2022/01/19 05:18:04;;;;;;;7.87;4.25;;;;;;;-3.94;61.08;101335.77;1742818;81;20996;-66
2022/01/19 05:20:31;;;;;;;9.60;4.80;;;;;;;-3.99;61.12;101337.97;1742664;81;20965;-66
2022/01/19 05:22:57;;;;;;;13.62;5.10;;;;;;;-4.05;61.18;101339.36;1742391;81;21509;-65
2022/01/19 05:25:24;;;;;;;9.23;4.17;;;;;;;-4.10;61.28;101347.62;1742761;81;21902;-66
2022/01/19 05:27:58;;;;;;;7.97;4.03;;;;;;;-4.11;61.37;101339.47;1741456;81;20999;-66
2022/01/19 05:30:27;;;;;;;9.88;4.70;;;;;;;-4.12;61.47;101359.16;1742563;81;21055;-65
2022/01/19 05:32:54;;;;;;;10.80;4.65;;;;;;;-4.16;61.54;101335.14;1710157;82;21067;-65
2022/01/19 05:35:20;;;;;;;9.33;4.00;;;;;;;-4.18;61.60;101335.75;1742673;81;21543;-65
2022/01/19 05:37:49;;;;;;;9.90;4.42;;;;;;;-4.20;61.64;101339.00;1710134;82;21086;-66
2022/01/19 05:40:23;;;;;;;9.20;3.98;;;;;;;-4.19;61.69;101346.34;1737426;82;21594;-66
2022/01/19 05:42:57;;;;;;;7.53;3.60;;;;;;;-4.23;61.83;101345.80;1742448;82;21146;-67
2022/01/19 05:45:24;;;;;;;8.35;3.30;;;;;;;-4.28;61.95;101350.15;1742804;82;21447;-66
2022/01/19 05:47:52;;;;;;;7.80;3.45;;;;;;;-4.29;62.07;101358.09;1742244;82;21016;-67
2022/01/19 05:50:18;;;;;;;10.28;3.65;;;;;;;-4.31;62.14;101354.80;1742636;82;20996;-67
2022/01/19 05:52:47;;;;;;;8.98;3.70;;;;;;;-4.33;62.21;101351.52;1740456;82;21517;-66
2022/01/19 05:55:13;;;;;;;7.35;3.62;;;;;;;-4.32;62.27;101346.64;1742509;81;20952;-65
2022/01/19 05:57:40;;;;;;;9.53;3.72;;;;;;;-4.31;62.27;101349.58;1742651;81;21122;-65
2022/01/19 06:00:08;;;;;;;7.33;3.12;;;;;;;-4.32;62.32;101353.98;1742764;81;21508;-66
2022/01/19 06:02:36;;;;;;;7.90;3.65;;;;;;;-4.30;62.39;101357.28;1737687;81;21016;-66
2022/01/19 06:05:05;;;;;;;8.08;3.77;;;;;;;-4.30;62.42;101354.67;1742576;81;20962;-66
2022/01/19 06:07:43;;;;;;;7.15;3.27;;;;;;;-4.27;62.42;101360.91;1727941;81;21075;-66
2022/01/19 06:10:42;;;;;;;7.10;3.17;;;;;;;-4.23;62.44;101358.03;1734344;81;20992;-66
2022/01/19 06:12:43;;;;;;;6.72;3.40;;;;;;;-4.21;62.47;101358.23;1725389;82;22265;-66
2022/01/19 06:15:10;;;;;;;8.58;3.70;;;;;;;-4.19;62.50;101371.12;1727262;83;21086;-65
2022/01/19 06:17:37;;;;;;;7.62;3.80;;;;;;;-4.18;62.46;101370.97;1726941;83;21034;-66
2022/01/19 06:20:07;;;;;;;8.20;3.40;;;;;;;-4.15;62.43;101358.95;1726913;83;21194;-66
2022/01/19 06:22:34;;;;;;;7.65;3.27;;;;;;;-4.11;62.37;101366.86;1726935;83;21609;-66
2022/01/19 06:25:01;;;;;;;8.65;3.90;;;;;;;-4.09;62.39;101368.83;1727075;83;20999;-66
2022/01/19 06:27:29;;;;;;;8.30;3.25;;;;;;;-4.08;62.38;101366.58;1726758;83;21039;-67
2022/01/19 06:29:55;;;;;;;7.97;3.50;;;;;;;-4.01;62.36;101363.73;1726962;83;21093;-66
2022/01/19 06:32:22;;;;;;;8.38;3.60;;;;;;;-3.96;62.31;101354.17;1726926;83;21031;-66
2022/01/19 06:34:50;;;;;;;9.33;4.97;;;;;;;-3.91;62.24;101363.70;1727283;83;21059;-65
2022/01/19 06:37:22;;;;;;;;;;;;;;;-3.85;62.25;101367.06;1730028;83;21163;-67
2022/01/19 06:39:57;;;;;;;9.20;3.67;;;;;;;-3.75;62.21;101367.02;1726037;83;20196;-67
2022/01/19 06:42:23;;;;;;;9.15;3.83;;;;;;;-3.68;62.08;101366.78;1727200;83;20979;-67
2022/01/19 06:44:50;;;;;;;8.10;4.72;;;;;;;-3.59;62.00;101375.52;1727020;83;21066;-66
2022/01/19 06:47:16;;;;;;;8.53;4.00;;;;;;;-3.52;61.80;101375.77;1726916;83;21574;-66
2022/01/19 06:49:43;;;;;;;7.00;3.92;;;;;;;-3.44;61.78;101367.56;1727150;83;21505;-66
2022/01/19 06:52:11;;;;;;;8.23;4.45;;;;;;;-3.29;61.65;101369.21;1727294;83;21481;-66
2022/01/19 06:54:37;;;;;;;11.80;4.70;;;;;;;-3.20;61.52;101366.19;1727298;83;21074;-66
2022/01/19 06:57:05;;;;;;;11.05;4.90;;;;;;;-3.15;61.51;101358.74;1738618;81;20964;-66
2022/01/19 06:59:36;;;;;;;7.83;4.42;;;;;;;-3.09;61.52;101356.36;1736063;82;21039;-66
2022/01/19 07:02:07;;;;;;;9.58;4.37;;;;;;;-2.99;61.39;101352.37;1741192;81;22008;-65
2022/01/19 07:04:50;;;;;;;11.95;4.90;;;;;;;-2.90;61.21;101359.78;1742747;81;21020;-65
2022/01/19 07:07:32;;;;;;;10.63;5.17;;;;;;;-2.93;60.87;101349.17;1741241;81;21059;-65
2022/01/19 07:10:01;;;;;;;10.25;5.17;;;;;;;-3.01;60.55;101362.14;1742557;81;20976;-66
2022/01/19 07:12:29;;;;;;;10.95;4.78;;;;;;;-3.07;60.70;101361.42;1742509;82;21451;-66
2022/01/19 07:14:56;;;;;;;12.30;5.60;;;;;;;-3.11;60.66;101367.92;1742769;82;22144;-66
2022/01/19 07:17:22;;;;;;;9.85;5.17;;;;;;;-3.12;60.64;101362.37;1742200;82;21126;-67
2022/01/19 07:19:50;;;;;;;9.95;5.05;;;;;;;-3.13;60.67;101359.39;1742766;82;21703;-67
2022/01/19 07:22:16;;;;;;;13.85;6.05;;;;;;;-3.13;60.61;101360.22;1742586;82;21507;-67
2022/01/19 07:24:44;;;;;;;11.30;5.87;;;;;;;-3.12;60.58;101338.85;1742893;82;21495;-66
2022/01/19 07:27:10;;;;;;;11.48;5.45;;;;;;;-3.05;60.70;101341.20;1742445;82;21424;-67
2022/01/19 07:29:37;;;;;;;13.75;6.55;;;;;;;-2.98;60.64;101358.41;1711120;82;21566;-66
2022/01/19 07:32:05;;;;;;;15.20;7.97;;;;;;;-2.92;60.71;101353.42;1710942;82;21019;-66
2022/01/19 07:34:32;;;;;;;15.00;8.20;;;;;;;-2.90;60.43;101355.37;1742662;82;20976;-66
2022/01/19 07:37:02;;;;;;;12.53;6.08;;;;;;;-2.89;60.40;101352.30;1741971;82;21038;-65
2022/01/19 07:39:29;;;;;;;12.75;6.67;;;;;;;-2.89;60.28;101358.34;1742689;82;22049;-66
2022/01/19 07:41:56;;;;;;;11.22;6.10;;;;;;;-2.87;60.23;101347.73;1742392;82;21546;-67
2022/01/19 07:44:41;;;;;;;12.73;6.55;;;;;;;-2.78;60.26;101352.06;1742637;82;20956;-67
2022/01/19 07:47:27;;;;;;;12.93;6.03;;;;;;;-2.64;60.22;101348.09;1743063;82;21490;-66
2022/01/19 07:50:01;;;;;;;14.58;7.15;;;;;;;-2.51;59.86;101345.91;1744584;82;21066;-66
2022/01/19 07:52:42;;;;;;;12.00;6.10;;;;;;;-2.40;59.71;101340.45;1742357;82;21157;-67
2022/01/19 07:55:28;;;;;;;11.90;5.90;;;;;;;-2.28;59.54;101342.31;1745340;82;21600;-65
2022/01/19 07:58:03;;;;;;;13.43;7.12;;;;;;;-2.23;59.35;101334.02;1744075;82;21505;-66
2022/01/19 08:00:33;;;;;;;14.13;6.65;;;;;;;-2.15;59.38;101328.82;1744260;82;21075;-67
2022/01/19 08:03:01;;;;;;;14.33;6.55;;;;;;;-2.02;59.04;101325.30;1743417;82;21518;-66
2022/01/19 08:05:38;;;;;;;12.13;6.33;;;;;;;-1.93;59.01;101317.01;1742809;82;21037;-67
2022/01/19 08:08:06;;;;;;;12.07;6.30;;;;;;;-1.82;58.62;101309.36;1745122;82;21011;-67
2022/01/19 08:10:33;;;;;;;12.15;5.92;;;;;;;-1.76;58.30;101319.20;1742810;82;21008;-67
2022/01/19 08:13:03;;;;;;;12.58;6.53;;;;;;;-1.70;58.17;101310.23;1742513;82;21058;-67
2022/01/19 08:15:30;;;;;;;14.90;5.97;;;;;;;-1.61;57.90;101316.80;1742647;81;21004;-66
2022/01/19 08:17:58;;;;;;;12.78;6.30;;;;;;;-1.57;57.69;101309.79;1708156;82;21201;-67
2022/01/19 08:20:25;;;;;;;10.80;5.80;;;;;;;-1.48;57.63;101310.61;1742599;82;21070;-66
2022/01/19 08:22:51;;;;;;;12.45;6.33;;;;;;;-1.42;57.46;101304.25;1742369;82;21000;-67
2022/01/19 08:25:23;;;;;;;11.30;5.72;;;;;;;-1.39;56.92;101303.61;1741355;82;21574;-66
2022/01/19 08:27:50;;;;;;;9.90;4.90;;;;;;;-1.39;56.92;101303.61;1742448;82;21518;-66
2022/01/19 08:30:18;;;;;;;9.10;5.15;;;;;;;-1.42;56.86;101305.55;1742156;82;21094;-66
2022/01/19 08:32:45;;;;;;;11.88;5.55;;;;;;;-1.46;56.86;101303.42;1742398;82;21024;-66
2022/01/19 08:35:20;;;;;;;11.03;5.20;;;;;;;-1.50;56.94;101300.31;1740880;82;21007;-68
2022/01/19 08:38:04;;;;;;;10.43;4.90;;;;;;;-1.50;56.84;101300.80;1742626;82;21032;-66
2022/01/19 08:40:34;;;;;;;11.68;5.00;;;;;;;-1.49;56.88;101295.39;1741526;82;20996;-67
2022/01/19 08:43:05;;;;;;;9.98;4.95;;;;;;;-1.46;56.73;101296.88;1741429;82;21087;-67
2022/01/19 08:45:33;;;;;;;10.82;5.45;;;;;;;-1.45;56.34;101293.44;1740604;81;21550;-68
2022/01/19 08:48:00;;;;;;;11.88;6.30;;;;;;;-1.47;56.35;101293.44;1742192;81;21558;-67
2022/01/19 08:50:28;;;;;;;13.95;8.05;;;;;;;-1.50;56.62;101299.49;1740525;81;21047;-66
2022/01/19 08:52:57;;;;;;;15.25;7.72;;;;;;;-1.57;56.69;101298.50;1736741;81;21561;-66
2022/01/19 08:55:25;;;;;;;14.13;8.70;;;;;;;-1.68;56.74;101293.88;1740580;81;21614;-68
2022/01/19 08:57:54;;;;;;;13.65;7.70;;;;;;;-1.72;56.96;101293.84;1742248;81;21012;-69
2022/01/19 09:00:21;;;;;;;14.63;7.87;;;;;;;-1.73;57.16;101293.52;1742564;81;21103;-66
2022/01/19 09:02:48;;;;;;;16.42;10.15;;;;;;;-1.69;57.21;101297.45;1742397;81;21506;-69
2022/01/19 09:05:15;;;;;;;18.02;8.75;;;;;;;-1.64;57.18;101288.33;1742539;81;21542;-68
2022/01/19 09:07:41;;;;;;;15.25;7.33;;;;;;;-1.36;56.92;101292.31;1742243;81;21534;-67
2022/01/19 09:10:11;;;;;;;16.00;9.05;;;;;;;-1.36;56.92;101292.31;1742727;81;20980;-67
2022/01/19 09:12:39;;;;;;;14.98;7.62;;;;;;;-1.27;56.60;101282.18;1742510;82;21470;-67
2022/01/19 09:15:09;;;;;;;17.77;7.92;;;;;;;-1.14;56.53;101286.14;1742534;82;21554;-68
2022/01/19 09:17:36;;;;;;;14.47;8.93;;;;;;;-1.01;56.01;101282.05;1742205;82;21008;-68
2022/01/19 09:20:05;;;;;;;10.55;6.08;;;;;;;-0.93;55.99;101283.84;1742723;82;21155;-67
2022/01/19 09:22:32;;;;;;;14.00;6.70;;;;;;;-0.89;55.39;101278.59;1742299;82;20984;-69
2022/01/19 09:24:58;;;;;;;15.43;8.28;;;;;;;-0.82;55.13;101277.48;1742739;82;21040;-68
2022/01/19 09:27:25;;;;;;;15.48;8.18;;;;;;;-0.78;55.15;101269.10;1742220;82;21126;-68
2022/01/19 09:29:51;;;;;;;13.83;7.40;;;;;;;-0.63;55.26;101263.17;1742521;82;21008;-67
2022/01/19 09:32:18;;;;;;;14.05;7.40;;;;;;;-0.43;54.75;101261.83;1742434;82;21113;-67
2022/01/19 09:34:48;;;;;;;11.80;6.53;;;;;;;-0.36;54.20;101252.31;1742548;82;21177;-66
2022/01/19 09:37:12;;;;;;;11.40;5.85;;;;;;;-0.37;53.50;101249.84;1742042;82;21032;-69
2022/01/19 09:39:39;;;;;;;13.45;6.90;;;;;;;-0.44;53.28;101256.26;1742684;82;21068;-69
2022/01/19 09:42:06;;;;;;;16.32;7.90;;;;;;;-0.43;53.20;101249.20;1742512;82;21054;-67
2022/01/19 09:44:33;;;;;;;14.98;7.78;;;;;;;-0.40;53.45;101241.81;1742289;81;21094;-68
2022/01/19 09:46:59;;;;;;;14.40;7.25;;;;;;;-0.30;53.19;101242.93;1742433;81;21055;-68
2022/01/19 09:49:26;;;;;;;12.80;7.22;;;;;;;-0.15;53.33;101238.62;1742921;81;20987;-68
2022/01/19 09:51:54;;;;;;;13.95;7.35;;;;;;;-0.07;52.85;101237.77;1742500;81;21035;-68
2022/01/19 09:54:23;;;;;;;13.58;6.50;;;;;;;-0.03;52.84;101235.96;1742715;81;21103;-68
2022/01/19 09:56:50;;;;;;;14.00;7.17;;;;;;;0.04;52.51;101243.16;1742299;81;21096;-68
2022/01/19 09:59:16;;;;;;;12.78;7.00;;;;;;;0.19;52.48;101239.61;1742647;81;21470;-71
2022/01/19 10:02:01;;;;;;;14.75;6.70;;;;;;;0.40;51.91;101239.03;1742328;81;21466;-69
2022/01/19 10:04:31;;;;;;;14.25;6.97;;;;;;;0.63;51.55;101233.80;1742556;81;20980;-67
2022/01/19 10:07:22;;;;;;;11.45;5.42;;;;;;;0.94;51.45;101225.01;1742393;81;20940;-67
2022/01/19 10:10:05;;;;;;;10.72;5.47;;;;;;;1.19;49.91;101212.97;1743146;82;21159;-67
2022/01/19 10:18:25;;;;;;;10.35;5.83;;;;;;;1.64;48.89;101180.39;1742780;82;21040;-67
2022/01/19 10:21:12;;;;;;;13.40;7.17;;;;;;;1.74;48.76;101177.47;1742695;82;21111;-67
2022/01/19 10:23:41;;;;;;;9.93;5.40;;;;;;;1.87;48.78;101180.27;1742360;82;21140;-67
2022/01/19 10:26:11;;;;;;;11.80;5.08;;;;;;;2.01;48.07;101184.72;1742340;82;21094;-67
2022/01/19 10:28:59;;;;;;;11.55;5.47;;;;;;;2.08;47.52;101179.52;1742452;82;21004;-67
2022/01/19 10:31:28;;;;;;;10.05;4.45;;;;;;;2.12;46.87;101176.83;1742139;81;21048;-67
2022/01/19 10:34:18;;;;;;;11.05;5.05;;;;;;;2.15;46.61;101174.33;1738369;81;21008;-67
2022/01/19 10:36:55;;;;;;;13.62;5.50;;;;;;;2.16;46.72;101180.72;1742645;82;21570;-67
2022/01/19 10:39:24;;;;;;;11.78;5.50;;;;;;;2.22;46.57;101180.48;1742958;82;20937;-67
2022/01/19 10:42:06;;;;;;;10.05;5.05;;;;;;;2.25;46.11;101184.06;1742621;82;21067;-67
2022/01/19 10:44:39;;;;;;;10.53;6.22;;;;;;;2.21;46.02;101173.08;1742440;82;21098;-67
2022/01/19 10:47:06;;;;;;;14.40;6.33;;;;;;;2.24;46.12;101172.70;1743130;82;21051;-68
2022/01/19 10:49:53;;;;;;;12.43;7.50;;;;;;;2.32;46.15;101163.86;1742585;82;21153;-67
2022/01/19 10:52:37;;;;;;;11.33;6.30;;;;;;;2.36;46.01;101158.52;1742645;82;20944;-67
2022/01/19 10:55:09;;;;;;;15.23;7.33;;;;;;;2.29;45.94;101174.77;1742395;82;20996;-67
2022/01/19 10:57:38;;;;;;;13.55;7.03;;;;;;;2.23;46.23;101166.29;1742651;81;21110;-67
2022/01/19 11:00:21;;;;;;;11.28;5.58;;;;;;;2.29;46.29;101173.45;1742611;82;20969;-67
2022/01/19 11:02:54;;;;;;;12.53;5.33;;;;;;;2.38;46.26;101173.66;1725501;82;22083;-66
2022/01/19 11:05:50;;;;;;;11.05;5.50;;;;;;;2.46;45.69;101168.24;1737096;82;20967;-67
2022/01/19 11:08:20;;;;;;;7.22;4.10;;;;;;;2.46;45.95;101170.06;1726878;83;21090;-67
2022/01/19 11:10:49;;;;;;;10.72;5.33;;;;;;;2.55;45.82;101178.17;1726971;83;21035;-67
2022/01/19 11:13:31;;;;;;;12.37;5.12;;;;;;;2.59;46.00;101174.15;1726989;83;21014;-67
2022/01/19 11:16:00;;;;;;;8.65;4.35;;;;;;;2.64;45.61;101167.00;1726984;83;21092;-68
2022/01/19 11:18:29;;;;;;;10.13;4.80;;;;;;;2.55;45.56;101157.89;1727225;83;21066;-66
2022/01/19 11:21:01;;;;;;;11.65;6.28;;;;;;;2.46;45.89;101148.47;1727041;83;21636;-68
2022/01/19 11:24:05;;;;;;;13.53;5.83;;;;;;;2.37;46.15;101148.78;1727542;83;20984;-67
2022/01/19 11:26:31;;;;;;;8.93;4.92;;;;;;;2.30;46.84;101148.24;1726812;82;21851;-68
2022/01/19 11:29:14;;;;;;;10.48;6.05;;;;;;;2.27;46.70;101128.84;1727218;83;21166;-67
2022/01/19 11:31:42;;;;;;;10.53;6.33;;;;;;;2.20;47.00;101138.98;1731962;81;21515;-68
2022/01/19 11:34:09;;;;;;;12.07;6.85;;;;;;;2.17;47.67;101130.95;1721521;82;21534;-67
2022/01/19 11:36:42;;;;;;;12.65;6.78;;;;;;;2.14;47.67;101125.23;1682745;83;20991;-68
2022/01/19 11:39:20;;;;;;;10.23;6.17;;;;;;;2.09;47.78;101117.91;1713242;83;21060;-68
2022/01/19 11:41:59;;;;;;;11.65;5.55;;;;;;;2.04;48.35;101115.84;1720729;83;22002;-67
2022/01/19 11:44:35;;;;;;;9.58;4.90;;;;;;;2.03;48.92;101113.38;1712931;83;21062;-67
2022/01/19 11:47:19;;;;;;;9.28;4.62;;;;;;;1.98;49.17;101111.31;1712819;83;20991;-67
2022/01/19 11:49:59;;;;;;;8.88;4.67;;;;;;;1.94;49.81;101110.54;1713241;83;21657;-67
2022/01/19 11:52:36;;;;;;;11.22;4.65;;;;;;;1.86;50.05;101106.21;1726883;81;20995;-67
2022/01/19 11:55:16;;;;;;;11.55;5.40;;;;;;;1.75;50.52;101103.56;1729508;81;21337;-66
2022/01/19 11:57:44;;;;;;;9.15;4.55;;;;;;;1.74;50.86;101101.10;1742442;82;21410;-67
2022/01/19 12:00:22;;;;;;;8.70;4.10;;;;;;;1.74;51.16;101108.50;1742631;82;21071;-67
2022/01/19 12:02:53;;;;;;;9.65;4.30;;;;;;;1.73;51.53;101110.83;1738171;81;21564;-68
2022/01/19 12:05:24;;;;;;;9.10;5.28;;;;;;;1.76;51.82;101103.06;1739899;82;20996;-68
2022/01/19 12:07:58;;;;;;;10.95;7.25;;;;;;;1.86;51.96;101100.94;1712960;83;21749;-67
2022/01/19 12:10:39;;;;;;;11.75;6.20;;;;;;;1.95;51.87;101092.44;1724088;82;21625;-67
2022/01/19 12:13:56;;;;;;;11.05;5.12;;;;;;;2.01;51.93;101083.28;1740759;82;21016;-67
2022/01/19 12:19:14;;;;;;;8.63;4.58;;;;;;;2.10;51.67;101070.27;1741512;81;20955;-67
2022/01/19 12:22:02;;;;;;;10.55;5.17;;;;;;;2.10;51.59;101069.46;1742163;82;21071;-67
2022/01/19 12:24:33;;;;;;;8.90;4.50;;;;;;;2.11;51.73;101080.34;1735980;82;21618;-66
2022/01/19 12:27:20;;;;;;;10.40;5.28;;;;;;;2.23;52.04;101074.04;1740871;82;21032;-67
2022/01/19 12:29:54;;;;;;;9.20;4.62;;;;;;;2.32;52.36;101082.14;1730248;82;21064;-67
2022/01/19 12:32:29;;;;;;;11.22;4.80;;;;;;;2.41;52.69;101082.83;1732052;82;20964;-68
2022/01/19 12:35:11;;;;;;;9.93;4.25;;;;;;;2.48;53.03;101087.66;1724284;82;21559;-68
2022/01/19 12:37:50;;;;;;;9.80;4.70;;;;;;;2.48;53.23;101084.51;1723913;81;28585;-68
2022/01/19 12:40:24;;;;;;;9.38;4.60;;;;;;;2.45;53.47;101082.25;1734211;80;21125;-67
2022/01/19 12:43:02;;;;;;;10.05;4.22;;;;;;;2.47;53.60;101078.93;1742158;82;21527;-67
2022/01/19 12:45:32;;;;;;;9.80;4.28;;;;;;;2.48;53.84;101079.74;1751159;82;20991;-67
2022/01/19 12:48:06;;;;;;;9.40;4.80;;;;;;;2.40;54.04;101085.95;1751397;80;21846;-67
2022/01/19 12:50:40;;;;;;;10.80;4.87;;;;;;;2.32;54.25;101091.36;1750895;82;20993;-66
2022/01/19 12:53:20;;;;;;;7.58;3.83;;;;;;;2.27;54.41;101088.47;1751307;81;21015;-66
2022/01/19 12:55:51;;;;;;;11.65;4.12;;;;;;;2.16;54.51;101088.48;1750987;81;21123;-67
2022/01/19 12:58:31;;;;;;;7.90;4.22;;;;;;;2.08;54.73;101074.94;1751342;81;21011;-67
2022/01/19 13:01:01;;;;;;;9.65;4.20;;;;;;;2.04;54.93;101082.91;1750937;82;21472;-67
2022/01/19 13:03:35;;;;;;;9.95;4.35;;;;;;;2.00;55.05;101074.23;1763726;80;21113;-67
2022/01/19 13:06:08;;;;;;;8.75;4.80;;;;;;;1.96;55.30;101074.30;1771594;80;21032;-67
2022/01/19 13:08:44;;;;;;;7.42;4.15;;;;;;;1.93;55.53;101075.48;1772503;80;21059;-67